Main page
METAR-TAF:

METAR-TAF

Airports :

Olsztyn-Mazury Airport

Olsztyn, Poland

latitude: 53-28-55N, longitude: 20-56-16E, elevation: 141 m

Current weather observation

The report was made 8 minutes ago, at 22:30 UTC
Wind 2 kt from the South/Southeast
Temperature -1°C
Humidity 100%
Pressure 1004 hPa
Visibility: 5000 m
Broken clouds at a height of 2900 ft
mist

METAR: EPSY 042230Z 15002KT 5000 BR BKN029 M01/M01 Q1004

Time: 23:38 (22:38 UTC)

Forecast

The report was made 2 hours and 8 minutes ago, at 20:30 UTC
Forecast valid from 04 at 21 UTC to 05 at 06 UTC
Wind 5 kt from the South
Visibility 10 km or more
Broken clouds at a height of 3500 ft
Probability 30% :
Temporary
from 04 at 21 UTC to 05 at 01 UTC
Visibility: 4000 m
Broken clouds at a height of 1400 ft
mist

TAF: EPSY 042030Z 0421/0506 17005KT 9999 BKN035 PROB30 TEMPO 0421/0501 4000 BR BKN014

Weather observations and forecasts of more than 4000 airports (METAR and TAF reports).

The available stations are represented by yellow and red dots on the map.

Hover mouse over dot to see the name of the station.

Then click to see weather observations and forecasts.

To change the map : click on the green buttons with a black cross to zoom in, on the green button with a dash to zoom out, or on the green arrows for adjacent maps.


METAR-TAF: